sensor_id;sensor_type;location;lat;lon;timestamp;pressure;altitude;pressure_sealevel;temperature;humidity
5872;BME280;2962;51.312;7.378;2023-04-04T00:01:50;98572.03;;;-0.76;100.00
5872;BME280;2962;51.312;7.378;2023-04-04T00:04:16;98575.50;;;-0.70;100.00
5872;BME280;2962;51.312;7.378;2023-04-04T00:06:41;98569.88;;;-0.74;100.00
5872;BME280;2962;51.312;7.378;2023-04-04T00:09:10;98574.94;;;-0.78;100.00
5872;BME280;2962;51.312;7.378;2023-04-04T00:11:36;98568.28;;;-0.80;100.00
5872;BME280;2962;51.312;7.378;2023-04-04T00:14:02;98572.53;;;-0.94;100.00
5872;BME280;2962;51.312;7.378;2023-04-04T00:16:27;98576.28;;;-0.95;100.00
5872;BME280;2962;51.312;7.378;2023-04-04T00:18:52;98562.63;;;-0.99;100.00
5872;BME280;2962;51.312;7.378;2023-04-04T00:21:18;98567.97;;;-0.89;100.00
5872;BME280;2962;51.312;7.378;2023-04-04T00:23:43;98569.84;;;-0.94;100.00
5872;BME280;2962;51.312;7.378;2023-04-04T00:26:08;98567.97;;;-0.99;100.00
5872;BME280;2962;51.312;7.378;2023-04-04T00:28:34;98565.28;;;-1.04;100.00
5872;BME280;2962;51.312;7.378;2023-04-04T00:30:59;98568.50;;;-1.07;100.00
5872;BME280;2962;51.312;7.378;2023-04-04T00:33:25;98579.47;;;-1.04;100.00
5872;BME280;2962;51.312;7.378;2023-04-04T00:35:50;98576.81;;;-1.04;100.00
5872;BME280;2962;51.312;7.378;2023-04-04T00:38:15;98567.16;;;-1.10;100.00
5872;BME280;2962;51.312;7.378;2023-04-04T00:40:42;98563.16;;;-1.07;100.00
5872;BME280;2962;51.312;7.378;2023-04-04T00:43:09;98569.56;;;-1.13;100.00
5872;BME280;2962;51.312;7.378;2023-04-04T00:45:35;98548.41;;;-1.25;100.00
5872;BME280;2962;51.312;7.378;2023-04-04T00:48:02;98581.59;;;-1.06;100.00
5872;BME280;2962;51.312;7.378;2023-04-04T00:50:27;98574.13;;;-1.04;100.00
5872;BME280;2962;51.312;7.378;2023-04-04T00:52:53;98569.84;;;-1.00;100.00
5872;BME280;2962;51.312;7.378;2023-04-04T00:55:18;98580.81;;;-1.01;100.00
5872;BME280;2962;51.312;7.378;2023-04-04T00:57:43;98580.53;;;-1.10;100.00
5872;BME280;2962;51.312;7.378;2023-04-04T01:00:10;98573.56;;;-1.11;100.00
5872;BME280;2962;51.312;7.378;2023-04-04T01:02:36;98571.94;;;-1.17;100.00
5872;BME280;2962;51.312;7.378;2023-04-04T01:05:02;98577.00;;;-1.26;100.00
5872;BME280;2962;51.312;7.378;2023-04-04T01:07:27;98573.50;;;-1.31;100.00
5872;BME280;2962;51.312;7.378;2023-04-04T01:09:55;98578.09;;;-1.27;100.00
5872;BME280;2962;51.312;7.378;2023-04-04T01:12:22;98573.50;;;-1.31;100.00
5872;BME280;2962;51.312;7.378;2023-04-04T01:14:47;98566.84;;;-1.34;100.00
5872;BME280;2962;51.312;7.378;2023-04-04T01:17:13;98574.56;;;-1.37;100.00
5872;BME280;2962;51.312;7.378;2023-04-04T01:20:10;98571.66;;;-1.31;100.00
5872;BME280;2962;51.312;7.378;2023-04-04T01:22:37;98568.16;;;-1.36;100.00
5872;BME280;2962;51.312;7.378;2023-04-04T01:25:06;98561.72;;;-1.40;100.00
5872;BME280;2962;51.312;7.378;2023-04-04T01:27:33;98564.41;;;-1.35;100.00
5872;BME280;2962;51.312;7.378;2023-04-04T01:29:58;98570.03;;;-1.32;100.00
5872;BME280;2962;51.312;7.378;2023-04-04T01:32:40;98562.81;;;-1.36;100.00
5872;BME280;2962;51.312;7.378;2023-04-04T01:37:55;98560.38;;;-1.48;100.00
5872;BME280;2962;51.312;7.378;2023-04-04T01:40:27;98553.09;;;-1.58;100.00
5872;BME280;2962;51.312;7.378;2023-04-04T01:42:59;98564.91;;;-1.54;100.00
5872;BME280;2962;51.312;7.378;2023-04-04T01:45:24;98562.97;;;-1.63;100.00
5872;BME280;2962;51.312;7.378;2023-04-04T01:47:50;98563.25;;;-1.65;100.00
5872;BME280;2962;51.312;7.378;2023-04-04T01:50:16;98551.50;;;-1.64;100.00
5872;BME280;2962;51.312;7.378;2023-04-04T01:52:41;98562.16;;;-1.69;100.00
5872;BME280;2962;51.312;7.378;2023-04-04T01:55:07;98557.13;;;-1.60;100.00
5872;BME280;2962;51.312;7.378;2023-04-04T01:57:32;98552.81;;;-1.66;100.00
5872;BME280;2962;51.312;7.378;2023-04-04T01:59:58;98539.16;;;-1.75;100.00
5872;BME280;2962;51.312;7.378;2023-04-04T02:02:23;98544.78;;;-1.72;100.00
5872;BME280;2962;51.312;7.378;2023-04-04T02:04:48;98556.81;;;-1.69;100.00
5872;BME280;2962;51.312;7.378;2023-04-04T02:07:14;98545.84;;;-1.73;100.00
5872;BME280;2962;51.312;7.378;2023-04-04T02:09:40;98544.28;;;-1.58;100.00
5872;BME280;2962;51.312;7.378;2023-04-04T02:12:06;98538.44;;;-1.55;100.00
5872;BME280;2962;51.312;7.378;2023-04-04T02:14:32;98544.56;;;-1.55;100.00
5872;BME280;2962;51.312;7.378;2023-04-04T02:16:58;98534.44;;;-1.53;100.00
5872;BME280;2962;51.312;7.378;2023-04-04T02:19:25;98541.16;;;-1.35;100.00
5872;BME280;2962;51.312;7.378;2023-04-04T02:21:51;98524.84;;;-1.38;100.00
5872;BME280;2962;51.312;7.378;2023-04-04T02:24:16;98533.13;;;-1.35;100.00
5872;BME280;2962;51.312;7.378;2023-04-04T02:26:42;98525.06;;;-1.50;100.00
5872;BME280;2962;51.312;7.378;2023-04-04T02:29:07;98534.69;;;-1.54;100.00
5872;BME280;2962;51.312;7.378;2023-04-04T02:31:33;98537.09;;;-1.53;100.00
5872;BME280;2962;51.312;7.378;2023-04-04T02:33:58;98534.19;;;-1.41;100.00
5872;BME280;2962;51.312;7.378;2023-04-04T02:36:23;98522.66;;;-1.47;100.00
5872;BME280;2962;51.312;7.378;2023-04-04T02:38:49;98525.34;;;-1.57;100.00
5872;BME280;2962;51.312;7.378;2023-04-04T02:41:14;98538.19;;;-1.49;100.00
5872;BME280;2962;51.312;7.378;2023-04-04T02:43:39;98531.72;;;-1.58;100.00
5872;BME280;2962;51.312;7.378;2023-04-04T02:46:05;98529.53;;;-1.76;100.00
5872;BME280;2962;51.312;7.378;2023-04-04T02:48:30;98514.03;;;-1.84;100.00
5872;BME280;2962;51.312;7.378;2023-04-04T02:50:55;98528.97;;;-1.83;100.00
5872;BME280;2962;51.312;7.378;2023-04-04T02:53:21;98524.13;;;-1.91;100.00
5872;BME280;2962;51.312;7.378;2023-04-04T02:55:46;98532.16;;;-1.86;100.00
5872;BME280;2962;51.312;7.378;2023-04-04T02:58:11;98528.13;;;-1.94;100.00
5872;BME280;2962;51.312;7.378;2023-04-04T03:00:37;98530.19;;;-2.06;100.00
5872;BME280;2962;51.312;7.378;2023-04-04T03:03:02;98523.50;;;-2.09;100.00
5872;BME280;2962;51.312;7.378;2023-04-04T03:05:28;98526.47;;;-2.00;100.00
5872;BME280;2962;51.312;7.378;2023-04-04T03:07:58;98524.56;;;-2.10;100.00
5872;BME280;2962;51.312;7.378;2023-04-04T03:10:24;98525.16;;;-1.98;100.00
5872;BME280;2962;51.312;7.378;2023-04-04T03:12:50;98523.28;;;-1.97;100.00
5872;BME280;2962;51.312;7.378;2023-04-04T03:15:16;98523.28;;;-2.02;100.00
5872;BME280;2962;51.312;7.378;2023-04-04T03:17:41;98512.03;;;-2.09;100.00
5872;BME280;2962;51.312;7.378;2023-04-04T03:20:07;98516.63;;;-2.00;100.00
5872;BME280;2962;51.312;7.378;2023-04-04T03:22:33;98515.50;;;-2.09;100.00
5872;BME280;2962;51.312;7.378;2023-04-04T03:24:58;98511.03;;;-1.93;100.00
5872;BME280;2962;51.312;7.378;2023-04-04T03:27:23;98523.28;;;-2.02;100.00
5872;BME280;2962;51.312;7.378;2023-04-04T03:29:49;98516.59;;;-2.05;100.00
5872;BME280;2962;51.312;7.378;2023-04-04T03:32:14;98516.59;;;-2.05;100.00
5872;BME280;2962;51.312;7.378;2023-04-04T03:34:39;98526.72;;;-2.07;100.00
5872;BME280;2962;51.312;7.378;2023-04-04T03:37:04;98517.06;;;-2.18;100.00
5872;BME280;2962;51.312;7.378;2023-04-04T03:39:30;98514.69;;;-2.14;100.00
5872;BME280;2962;51.312;7.378;2023-04-04T03:41:56;98515.47;;;-2.14;100.00
5872;BME280;2962;51.312;7.378;2023-04-04T03:44:22;98514.44;;;-2.08;100.00
5872;BME280;2962;51.312;7.378;2023-04-04T03:46:47;98505.88;;;-2.10;100.00
5872;BME280;2962;51.312;7.378;2023-04-04T03:49:12;98499.94;;;-2.22;100.00
5872;BME280;2962;51.312;7.378;2023-04-04T03:51:38;98497.56;;;-2.18;100.00
5872;BME280;2962;51.312;7.378;2023-04-04T03:54:03;98501.56;;;-2.21;100.00
5872;BME280;2962;51.312;7.378;2023-04-04T03:56:29;98501.31;;;-2.14;100.00
5872;BME280;2962;51.312;7.378;2023-04-04T03:58:56;98497.03;;;-2.15;100.00
5872;BME280;2962;51.312;7.378;2023-04-04T04:01:21;98485.22;;;-2.30;100.00
5872;BME280;2962;51.312;7.378;2023-04-04T04:03:47;98493.53;;;-2.21;100.00
5872;BME280;2962;51.312;7.378;2023-04-04T04:06:12;98497.31;;;-2.12;100.00
5872;BME280;2962;51.312;7.378;2023-04-04T04:08:37;98479.41;;;-2.22;100.00
5872;BME280;2962;51.312;7.378;2023-04-04T04:11:04;98481.00;;;-2.21;100.00
5872;BME280;2962;51.312;7.378;2023-04-04T04:13:29;98477.97;;;-2.39;100.00
5872;BME280;2962;51.312;7.378;2023-04-04T04:15:55;98492.66;;;-2.42;100.00
5872;BME280;2962;51.312;7.378;2023-04-04T04:18:21;98494.97;;;-2.51;100.00
5872;BME280;2962;51.312;7.378;2023-04-04T04:20:46;98481.28;;;-2.64;100.00
5872;BME280;2962;51.312;7.378;2023-04-04T04:23:11;98489.28;;;-2.64;100.00
5872;BME280;2962;51.312;7.378;2023-04-04T04:25:37;98481.31;;;-2.59;100.00
5872;BME280;2962;51.312;7.378;2023-04-04T04:28:02;98471.72;;;-2.60;100.00
5872;BME280;2962;51.312;7.378;2023-04-04T04:30:27;98471.22;;;-2.52;100.00
5872;BME280;2962;51.312;7.378;2023-04-04T04:32:53;98482.47;;;-2.45;100.00
5872;BME280;2962;51.312;7.378;2023-04-04T04:35:18;98470.38;;;-2.58;100.00
5872;BME280;2962;51.312;7.378;2023-04-04T04:37:45;98459.38;;;-2.66;100.00
5872;BME280;2962;51.312;7.378;2023-04-04T04:40:11;98493.06;;;-2.55;100.00
5872;BME280;2962;51.312;7.378;2023-04-04T04:42:45;98492.75;;;-2.64;100.00
5872;BME280;2962;51.312;7.378;2023-04-04T04:45:13;98482.00;;;-2.74;100.00
5872;BME280;2962;51.312;7.378;2023-04-04T04:47:38;98485.78;;;-2.70;100.00
5872;BME280;2962;51.312;7.378;2023-04-04T04:50:04;98490.91;;;-2.58;100.00
5872;BME280;2962;51.312;7.378;2023-04-04T04:52:29;98489.59;;;-2.56;100.00
5872;BME280;2962;51.312;7.378;2023-04-04T04:54:56;98469.34;;;-2.57;100.00
5872;BME280;2962;51.312;7.378;2023-04-04T04:57:21;98473.13;;;-2.48;100.00
5872;BME280;2962;51.312;7.378;2023-04-04T04:59:47;98472.03;;;-2.52;100.00
5872;BME280;2962;51.312;7.378;2023-04-04T05:02:12;98473.34;;;-2.54;100.00
5872;BME280;2962;51.312;7.378;2023-04-04T05:04:38;98485.38;;;-2.47;100.00
5872;BME280;2962;51.312;7.378;2023-04-04T05:07:05;98479.75;;;-2.50;100.00
5872;BME280;2962;51.312;7.378;2023-04-04T05:09:32;98478.19;;;-2.46;100.00
5872;BME280;2962;51.312;7.378;2023-04-04T05:11:58;98484.28;;;-2.51;100.00
5872;BME280;2962;51.312;7.378;2023-04-04T05:14:23;98476.28;;;-2.56;100.00
5872;BME280;2962;51.312;7.378;2023-04-04T05:16:48;98477.34;;;-2.57;100.00
5872;BME280;2962;51.312;7.378;2023-04-04T05:19:14;98487.44;;;-2.59;100.00
5872;BME280;2962;51.312;7.378;2023-04-04T05:21:39;98500.59;;;-2.47;100.00
5872;BME280;2962;51.312;7.378;2023-04-04T05:24:05;98500.41;;;-2.35;100.00
5872;BME280;2962;51.312;7.378;2023-04-04T05:26:30;98491.63;;;-2.31;100.00
5872;BME280;2962;51.312;7.378;2023-04-04T05:28:56;98497.22;;;-2.32;100.00
5872;BME280;2962;51.312;7.378;2023-04-04T05:31:23;98483.88;;;-2.32;100.00
5872;BME280;2962;51.312;7.378;2023-04-04T05:33:48;98502.38;;;-2.15;100.00
5872;BME280;2962;51.312;7.378;2023-04-04T05:36:14;98502.94;;;-2.08;100.00
5872;BME280;2962;51.312;7.378;2023-04-04T05:38:40;98511.28;;;-2.00;100.00
5872;BME280;2962;51.312;7.378;2023-04-04T05:41:05;98498.47;;;-1.92;100.00
5872;BME280;2962;51.312;7.378;2023-04-04T05:43:30;98499.03;;;-1.85;100.00
5872;BME280;2962;51.312;7.378;2023-04-04T05:45:56;98502.28;;;-1.78;100.00
5872;BME280;2962;51.312;7.378;2023-04-04T05:48:21;98507.91;;;-1.75;100.00
5872;BME280;2962;51.312;7.378;2023-04-04T05:50:47;98516.19;;;-1.71;100.00
5872;BME280;2962;51.312;7.378;2023-04-04T05:53:12;98512.22;;;-1.68;100.00
5872;BME280;2962;51.312;7.378;2023-04-04T05:55:38;98509.31;;;-1.52;100.00
5872;BME280;2962;51.312;7.378;2023-04-04T05:58:03;98513.06;;;-1.53;100.00
5872;BME280;2962;51.312;7.378;2023-04-04T06:00:29;98488.72;;;-1.61;100.00
5872;BME280;2962;51.312;7.378;2023-04-04T06:02:57;98517.09;;;-1.45;100.00
5872;BME280;2962;51.312;7.378;2023-04-04T06:05:23;98507.72;;;-1.53;100.00
5872;BME280;2962;51.312;7.378;2023-04-04T06:07:49;98513.59;;;-1.45;100.00
5872;BME280;2962;51.312;7.378;2023-04-04T06:10:14;98521.63;;;-1.35;100.00
5872;BME280;2962;51.312;7.378;2023-04-04T06:12:40;98518.19;;;-1.31;100.00
5872;BME280;2962;51.312;7.378;2023-04-04T06:15:06;98529.13;;;-1.27;100.00
5872;BME280;2962;51.312;7.378;2023-04-04T06:17:31;98528.59;;;-1.24;100.00
5872;BME280;2962;51.312;7.378;2023-04-04T06:19:57;98533.19;;;-1.14;100.00
5872;BME280;2962;51.312;7.378;2023-04-04T06:22:22;98525.16;;;-1.04;100.00
5872;BME280;2962;51.312;7.378;2023-04-04T06:24:47;98509.38;;;-1.06;100.00
5872;BME280;2962;51.312;7.378;2023-04-04T06:27:13;98530.00;;;-0.91;100.00
5872;BME280;2962;51.312;7.378;2023-04-04T06:29:38;98523.59;;;-0.80;100.00
5872;BME280;2962;51.312;7.378;2023-04-04T06:32:04;98545.81;;;-0.69;100.00
5872;BME280;2962;51.312;7.378;2023-04-04T06:34:30;98540.97;;;-0.67;100.00
5872;BME280;2962;51.312;7.378;2023-04-04T06:36:55;98546.59;;;-0.74;100.00
5872;BME280;2962;51.312;7.378;2023-04-04T06:39:21;98553.53;;;-0.78;100.00
5872;BME280;2962;51.312;7.378;2023-04-04T06:41:46;98553.28;;;-0.71;100.00
5872;BME280;2962;51.312;7.378;2023-04-04T06:44:12;98564.81;;;-0.65;100.00
5872;BME280;2962;51.312;7.378;2023-04-04T06:46:38;98555.44;;;-0.68;100.00
5872;BME280;2962;51.312;7.378;2023-04-04T06:49:04;98560.53;;;-0.61;100.00
5872;BME280;2962;51.312;7.378;2023-04-04T06:51:30;98544.47;;;-0.77;100.00
5872;BME280;2962;51.312;7.378;2023-04-04T06:53:55;98553.56;;;-0.72;100.00
5872;BME280;2962;51.312;7.378;2023-04-04T06:56:21;98558.38;;;-0.75;100.00
5872;BME280;2962;51.312;7.378;2023-04-04T06:58:47;98563.19;;;-0.61;100.00
5872;BME280;2962;51.312;7.378;2023-04-04T07:01:12;98557.31;;;-0.63;100.00
5872;BME280;2962;51.312;7.378;2023-04-04T07:03:38;98563.19;;;-0.51;100.00
5872;BME280;2962;51.312;7.378;2023-04-04T07:06:03;98559.16;;;-0.43;100.00
5872;BME280;2962;51.312;7.378;2023-04-04T07:08:29;98561.59;;;-0.42;100.00
5872;BME280;2962;51.312;7.378;2023-04-04T07:10:55;98558.88;;;-0.32;100.00
5872;BME280;2962;51.312;7.378;2023-04-04T07:13:20;98557.81;;;-0.15;100.00
5872;BME280;2962;51.312;7.378;2023-04-04T07:15:45;98559.59;;;0.15;100.00
5872;BME280;2962;51.312;7.378;2023-04-04T07:18:15;98554.63;;;0.53;100.00
5872;BME280;2962;51.312;7.378;2023-04-04T07:20:40;98533.56;;;0.80;100.00
5872;BME280;2962;51.312;7.378;2023-04-04T07:23:06;98550.19;;;1.21;100.00
5872;BME280;2962;51.312;7.378;2023-04-04T07:25:31;98537.31;;;1.53;100.00
5872;BME280;2962;51.312;7.378;2023-04-04T07:27:56;98556.03;;;1.63;100.00
5872;BME280;2962;51.312;7.378;2023-04-04T07:30:22;98543.09;;;1.65;100.00
5872;BME280;2962;51.312;7.378;2023-04-04T07:33:01;98573.78;;;1.88;100.00
5872;BME280;2962;51.312;7.378;2023-04-04T07:35:27;98560.25;;;1.74;100.00
5872;BME280;2962;51.312;7.378;2023-04-04T07:37:52;98559.63;;;1.82;100.00
5872;BME280;2962;51.312;7.378;2023-04-04T07:40:18;98559.63;;;2.06;100.00
5872;BME280;2962;51.312;7.378;2023-04-04T07:42:45;98561.13;;;1.93;100.00
5872;BME280;2962;51.312;7.378;2023-04-04T07:45:13;98559.84;;;1.86;100.00
5872;BME280;2962;51.312;7.378;2023-04-04T07:47:45;98570.63;;;2.10;100.00
5872;BME280;2962;51.312;7.378;2023-04-04T07:50:11;98560.56;;;2.44;100.00
5872;BME280;2962;51.312;7.378;2023-04-04T07:52:37;98570.66;;;2.53;100.00
5872;BME280;2962;51.312;7.378;2023-04-04T07:55:03;98561.69;;;2.62;100.00
5872;BME280;2962;51.312;7.378;2023-04-04T07:57:29;98548.97;;;2.68;100.00
5872;BME280;2962;51.312;7.378;2023-04-04T07:59:55;98562.13;;;2.69;100.00
5872;BME280;2962;51.312;7.378;2023-04-04T08:02:20;98558.13;;;2.67;100.00
5872;BME280;2962;51.312;7.378;2023-04-04T08:04:46;98553.13;;;2.79;100.00
5872;BME280;2962;51.312;7.378;2023-04-04T08:07:14;98560.31;;;3.03;100.00
5872;BME280;2962;51.312;7.378;2023-04-04T08:09:39;98556.47;;;3.09;100.00
5872;BME280;2962;51.312;7.378;2023-04-04T08:12:05;98557.28;;;2.90;100.00
5872;BME280;2962;51.312;7.378;2023-04-04T08:14:30;98547.53;;;2.94;100.00
5872;BME280;2962;51.312;7.378;2023-04-04T08:16:56;98549.19;;;3.09;100.00
5872;BME280;2962;51.312;7.378;2023-04-04T08:19:22;98545.13;;;3.12;100.00
5872;BME280;2962;51.312;7.378;2023-04-04T08:21:47;98543.38;;;3.21;100.00
5872;BME280;2962;51.312;7.378;2023-04-04T08:24:13;98537.75;;;3.36;100.00
5872;BME280;2962;51.312;7.378;2023-04-04T08:26:38;98533.41;;;3.54;100.00
5872;BME280;2962;51.312;7.378;2023-04-04T08:29:03;98534.22;;;3.68;100.00
5872;BME280;2962;51.312;7.378;2023-04-04T08:31:29;98531.06;;;3.80;100.00
5872;BME280;2962;51.312;7.378;2023-04-04T08:33:54;98531.66;;;3.77;100.00
5872;BME280;2962;51.312;7.378;2023-04-04T08:36:20;98532.47;;;3.91;100.00
5872;BME280;2962;51.312;7.378;2023-04-04T08:38:46;98527.81;;;3.51;100.00
5872;BME280;2962;51.312;7.378;2023-04-04T08:41:12;98542.28;;;3.55;100.00
5872;BME280;2962;51.312;7.378;2023-04-04T08:43:38;98548.91;;;3.76;100.00
5872;BME280;2962;51.312;7.378;2023-04-04T08:46:06;98546.75;;;3.46;100.00
5872;BME280;2962;51.312;7.378;2023-04-04T08:48:34;98539.59;;;3.55;100.00
5872;BME280;2962;51.312;7.378;2023-04-04T08:51:00;98540.03;;;3.62;100.00
5872;BME280;2962;51.312;7.378;2023-04-04T08:53:31;98542.66;;;3.81;100.00
5872;BME280;2962;51.312;7.378;2023-04-04T08:55:59;98543.47;;;4.23;100.00
5872;BME280;2962;51.312;7.378;2023-04-04T08:58:24;98538.91;;;4.23;100.00
5872;BME280;2962;51.312;7.378;2023-04-04T09:00:54;98543.25;;;3.91;100.00
5872;BME280;2962;51.312;7.378;2023-04-04T09:03:24;98540.19;;;3.52;100.00
5872;BME280;2962;51.312;7.378;2023-04-04T09:05:54;98548.91;;;3.76;100.00
5872;BME280;2962;51.312;7.378;2023-04-04T09:08:20;98544.22;;;3.68;100.00
5872;BME280;2962;51.312;7.378;2023-04-04T09:10:48;98551.81;;;3.80;100.00
5872;BME280;2962;51.312;7.378;2023-04-04T09:13:13;98534.31;;;3.96;100.00
5872;BME280;2962;51.312;7.378;2023-04-04T09:15:42;98546.69;;;4.66;100.00
5872;BME280;2962;51.312;7.378;2023-04-04T09:18:09;98532.19;;;4.48;100.00
5872;BME280;2962;51.312;7.378;2023-04-04T09:20:39;98545.41;;;5.00;100.00
5872;BME280;2962;51.312;7.378;2023-04-04T09:23:10;98531.84;;;5.13;100.00
5872;BME280;2962;51.312;7.378;2023-04-04T09:25:36;98538.03;;;5.14;100.00
5872;BME280;2962;51.312;7.378;2023-04-04T09:28:03;98529.09;;;5.27;100.00
5872;BME280;2962;51.312;7.378;2023-04-04T09:30:31;98530.53;;;5.11;100.00
5872;BME280;2962;51.312;7.378;2023-04-04T09:33:08;98539.78;;;5.32;100.00
5872;BME280;2962;51.312;7.378;2023-04-04T09:35:38;98534.97;;;5.29;100.00
5872;BME280;2962;51.312;7.378;2023-04-04T09:38:06;98534.84;;;5.57;100.00
5872;BME280;2962;51.312;7.378;2023-04-04T09:40:33;98513.59;;;5.64;100.00
5872;BME280;2962;51.312;7.378;2023-04-04T09:43:00;98530.22;;;6.11;100.00
5872;BME280;2962;51.312;7.378;2023-04-04T09:45:26;98527.63;;;6.37;98.56
5872;BME280;2962;51.312;7.378;2023-04-04T09:47:51;98531.97;;;6.47;95.81
5872;BME280;2962;51.312;7.378;2023-04-04T09:50:22;98537.66;;;6.36;92.81
5872;BME280;2962;51.312;7.378;2023-04-04T09:52:49;98537.59;;;6.76;87.81
5872;BME280;2962;51.312;7.378;2023-04-04T09:55:14;98533.97;;;7.07;82.64
5872;BME280;2962;51.312;7.378;2023-04-04T09:57:40;98540.97;;;6.99;98.19
5872;BME280;2962;51.312;7.378;2023-04-04T10:00:07;98531.28;;;7.16;90.14
5872;BME280;2962;51.312;7.378;2023-04-04T10:02:37;98533.63;;;6.82;88.75
5872;BME280;2962;51.312;7.378;2023-04-04T10:05:03;98520.22;;;6.60;95.89
5872;BME280;2962;51.312;7.378;2023-04-04T10:07:31;98532.41;;;6.31;93.82
5872;BME280;2962;51.312;7.378;2023-04-04T10:10:00;98522.28;;;6.54;94.79
5872;BME280;2962;51.312;7.378;2023-04-04T10:12:25;98517.03;;;6.84;91.65
5872;BME280;2962;51.312;7.378;2023-04-04T10:14:55;98524.72;;;6.99;93.37
5872;BME280;2962;51.312;7.378;2023-04-04T10:17:21;98523.09;;;7.42;97.88
5872;BME280;2962;51.312;7.378;2023-04-04T10:19:47;98511.88;;;7.78;88.17
5872;BME280;2962;51.312;7.378;2023-04-04T10:22:13;98502.31;;;7.72;80.46
5872;BME280;2962;51.312;7.378;2023-04-04T10:24:40;98520.88;;;7.44;85.46
5872;BME280;2962;51.312;7.378;2023-04-04T10:27:05;98511.88;;;7.78;89.01
5872;BME280;2962;51.312;7.378;2023-04-04T10:29:31;98500.66;;;7.97;83.09
5872;BME280;2962;51.312;7.378;2023-04-04T10:32:04;98518.66;;;8.01;86.31
5872;BME280;2962;51.312;7.378;2023-04-04T10:35:02;98510.97;;;8.12;77.74
5872;BME280;2962;51.312;7.378;2023-04-04T10:37:36;98508.53;;;7.81;77.09
5872;BME280;2962;51.312;7.378;2023-04-04T10:40:07;98501.75;;;6.79;86.91
5872;BME280;2962;51.312;7.378;2023-04-04T10:42:38;98490.25;;;6.48;81.93
5872;BME280;2962;51.312;7.378;2023-04-04T10:45:09;98493.97;;;6.69;78.80
5872;BME280;2962;51.312;7.378;2023-04-04T10:47:36;98489.97;;;6.84;81.17
5872;BME280;2962;51.312;7.378;2023-04-04T10:50:03;98484.69;;;7.40;75.56
5872;BME280;2962;51.312;7.378;2023-04-04T10:52:33;98483.22;;;7.59;81.34
5872;BME280;2962;51.312;7.378;2023-04-04T10:55:00;98471.84;;;8.13;81.19
5872;BME280;2962;51.312;7.378;2023-04-04T10:57:27;98484.69;;;8.63;71.51
5872;BME280;2962;51.312;7.378;2023-04-04T11:00:10;98479.47;;;9.00;69.61
5872;BME280;2962;51.312;7.378;2023-04-04T11:02:58;98471.59;;;8.65;76.52
5872;BME280;2962;51.312;7.378;2023-04-04T11:05:26;98473.56;;;8.26;75.36
5872;BME280;2962;51.312;7.378;2023-04-04T11:08:02;98470.63;;;8.31;69.33
5872;BME280;2962;51.312;7.378;2023-04-04T11:10:32;98470.13;;;8.89;71.25
5872;BME280;2962;51.312;7.378;2023-04-04T11:13:01;98467.00;;;8.27;65.73
5872;BME280;2962;51.312;7.378;2023-04-04T11:18:18;98468.25;;;9.68;73.16
5872;BME280;2962;51.312;7.378;2023-04-04T11:20:46;98467.53;;;9.92;68.89
5872;BME280;2962;51.312;7.378;2023-04-04T11:23:19;98465.72;;;10.45;59.74
5872;BME280;2962;51.312;7.378;2023-04-04T11:25:58;98461.03;;;10.70;63.37
5872;BME280;2962;51.312;7.378;2023-04-04T11:39:12;98445.94;;;9.87;64.88
5872;BME280;2962;51.312;7.378;2023-04-04T11:42:01;98461.47;;;11.12;59.88
5872;BME280;2962;51.312;7.378;2023-04-04T11:44:33;98467.94;;;11.20;56.33
5872;BME280;2962;51.312;7.378;2023-04-04T11:49:38;98452.19;;;11.29;52.88
5872;BME280;2962;51.312;7.378;2023-04-04T11:52:06;98444.06;;;10.89;48.70
5872;BME280;2962;51.312;7.378;2023-04-04T11:54:33;98439.03;;;9.77;54.28
5872;BME280;2962;51.312;7.378;2023-04-04T11:56:58;98452.56;;;10.35;58.41
5872;BME280;2962;51.312;7.378;2023-04-04T11:59:24;98439.41;;;10.89;58.90
5872;BME280;2962;51.312;7.378;2023-04-04T12:01:50;98440.59;;;11.04;55.05
5872;BME280;2962;51.312;7.378;2023-04-04T12:04:19;98442.66;;;11.67;54.87
5872;BME280;2962;51.312;7.378;2023-04-04T12:06:55;98445.00;;;11.96;44.98
5872;BME280;2962;51.312;7.378;2023-04-04T12:09:25;98436.44;;;11.22;50.55
5872;BME280;2962;51.312;7.378;2023-04-04T12:11:54;98441.31;;;11.89;53.24
5872;BME280;2962;51.312;7.378;2023-04-04T12:14:22;98430.59;;;12.47;49.34
5872;BME280;2962;51.312;7.378;2023-04-04T12:16:49;98436.72;;;12.60;48.40
5872;BME280;2962;51.312;7.378;2023-04-04T12:19:17;98436.41;;;13.19;48.59
5872;BME280;2962;51.312;7.378;2023-04-04T12:21:43;98429.31;;;12.80;48.20
5872;BME280;2962;51.312;7.378;2023-04-04T12:24:10;98434.06;;;12.83;50.33
5872;BME280;2962;51.312;7.378;2023-04-04T12:26:36;98427.91;;;12.86;44.03
5872;BME280;2962;51.312;7.378;2023-04-04T12:29:02;98407.81;;;12.24;41.05
5872;BME280;2962;51.312;7.378;2023-04-04T12:31:30;98422.22;;;11.01;43.15
5872;BME280;2962;51.312;7.378;2023-04-04T12:33:56;98411.94;;;10.82;44.70
5872;BME280;2962;51.312;7.378;2023-04-04T12:36:25;98410.28;;;11.65;47.50
5872;BME280;2962;51.312;7.378;2023-04-04T12:38:59;98400.16;;;12.68;48.17
5872;BME280;2962;51.312;7.378;2023-04-04T12:41:25;98408.59;;;13.17;45.01
5872;BME280;2962;51.312;7.378;2023-04-04T12:43:57;98397.91;;;13.97;45.24
5872;BME280;2962;51.312;7.378;2023-04-04T12:46:25;98386.00;;;14.65;43.88
5872;BME280;2962;51.312;7.378;2023-04-04T12:48:51;98392.44;;;14.24;42.03
5872;BME280;2962;51.312;7.378;2023-04-04T12:51:16;98384.69;;;13.14;41.68
5872;BME280;2962;51.312;7.378;2023-04-04T12:53:50;98389.81;;;14.31;39.36
5872;BME280;2962;51.312;7.378;2023-04-04T12:56:24;98386.03;;;13.89;42.33
5872;BME280;2962;51.312;7.378;2023-04-04T12:58:50;98382.25;;;13.98;41.25
5872;BME280;2962;51.312;7.378;2023-04-04T13:01:16;98381.16;;;12.36;40.44
5872;BME280;2962;51.312;7.378;2023-04-04T13:03:42;98377.94;;;11.52;42.73
5872;BME280;2962;51.312;7.378;2023-04-04T13:06:17;98380.44;;;11.72;43.89
5872;BME280;2962;51.312;7.378;2023-04-04T13:08:51;98369.88;;;12.38;43.87
5872;BME280;2962;51.312;7.378;2023-04-04T13:11:16;98371.91;;;12.99;47.43
5872;BME280;2962;51.312;7.378;2023-04-04T13:13:43;98368.38;;;13.41;41.13
5872;BME280;2962;51.312;7.378;2023-04-04T13:16:09;98367.94;;;14.08;41.93
5872;BME280;2962;51.312;7.378;2023-04-04T13:18:42;98367.81;;;14.27;42.26
5872;BME280;2962;51.312;7.378;2023-04-04T13:21:11;98356.72;;;15.51;41.79
5872;BME280;2962;51.312;7.378;2023-04-04T13:23:39;98361.38;;;15.06;39.21
5872;BME280;2962;51.312;7.378;2023-04-04T13:26:06;98355.34;;;14.94;38.07
5872;BME280;2962;51.312;7.378;2023-04-04T13:28:32;98359.22;;;14.55;37.72
5872;BME280;2962;51.312;7.378;2023-04-04T13:31:01;98357.66;;;12.90;38.45
5872;BME280;2962;51.312;7.378;2023-04-04T13:33:26;98351.59;;;12.23;39.76
5872;BME280;2962;51.312;7.378;2023-04-04T13:35:52;98339.63;;;11.80;40.73